Terminal Aerodrome Forecast
Issued by NWS

Home | Current Version | Previous Version | Text Only | Print | Product List | Glossary On
Versions: 1 2 3 4 5 6 7 8 9 10 11 12 13 14 15 16 17 18
564
FTUS41 KCAR 221811 AAB
TAFHUL
TAF AMD
KHUL 221811Z 2218/2318 15009KT 2SM -SHRA VCTS SCT035CB OVC050
     FM221900 23010G20KT P6SM VCSH BKN060
     FM222000 25009KT P6SM BKN070
     FM231300 30015G22KT P6SM BKN090
     FM231600 30019G30KT P6SM SCT090=

USA.gov is the U.S. government's official web portal to all federal, state and local government web resources and services.